sensor_id;sensor_type;location;lat;lon;timestamp;P1;durP1;ratioP1;P2;durP2;ratioP2
7719;SDS011;3902;49.474;8.616;2023-05-16T00:00:58;12.87;;;11.57;;
7719;SDS011;3902;49.474;8.616;2023-05-16T00:03:25;13.77;;;12.43;;
7719;SDS011;3902;49.474;8.616;2023-05-16T00:05:50;12.83;;;11.60;;
7719;SDS011;3902;49.474;8.616;2023-05-16T00:08:16;14.63;;;13.23;;
7719;SDS011;3902;49.474;8.616;2023-05-16T00:10:42;14.03;;;12.63;;
7719;SDS011;3902;49.474;8.616;2023-05-16T00:13:08;14.67;;;13.27;;
7719;SDS011;3902;49.474;8.616;2023-05-16T00:15:33;16.90;;;15.10;;
7719;SDS011;3902;49.474;8.616;2023-05-16T00:17:59;16.77;;;15.10;;
7719;SDS011;3902;49.474;8.616;2023-05-16T00:20:25;16.87;;;15.10;;
7719;SDS011;3902;49.474;8.616;2023-05-16T00:22:51;17.43;;;15.37;;
7719;SDS011;3902;49.474;8.616;2023-05-16T00:25:17;17.03;;;15.27;;
7719;SDS011;3902;49.474;8.616;2023-05-16T00:27:43;18.03;;;16.23;;
7719;SDS011;3902;49.474;8.616;2023-05-16T00:30:09;17.87;;;16.13;;
7719;SDS011;3902;49.474;8.616;2023-05-16T00:32:35;18.63;;;16.73;;
7719;SDS011;3902;49.474;8.616;2023-05-16T00:35:01;21.30;;;19.20;;
7719;SDS011;3902;49.474;8.616;2023-05-16T00:37:27;20.43;;;18.23;;
7719;SDS011;3902;49.474;8.616;2023-05-16T00:39:52;19.90;;;17.97;;
7719;SDS011;3902;49.474;8.616;2023-05-16T00:42:18;20.80;;;18.70;;
7719;SDS011;3902;49.474;8.616;2023-05-16T00:44:44;20.33;;;18.10;;
7719;SDS011;3902;49.474;8.616;2023-05-16T00:47:10;21.87;;;19.57;;
7719;SDS011;3902;49.474;8.616;2023-05-16T00:49:36;20.37;;;18.23;;
7719;SDS011;3902;49.474;8.616;2023-05-16T00:52:01;22.40;;;19.70;;
7719;SDS011;3902;49.474;8.616;2023-05-16T00:54:28;22.13;;;19.73;;
7719;SDS011;3902;49.474;8.616;2023-05-16T00:56:55;20.60;;;18.50;;
7719;SDS011;3902;49.474;8.616;2023-05-16T00:59:21;20.80;;;18.67;;
7719;SDS011;3902;49.474;8.616;2023-05-16T01:01:50;21.57;;;19.27;;
7719;SDS011;3902;49.474;8.616;2023-05-16T01:04:16;22.57;;;20.20;;
7719;SDS011;3902;49.474;8.616;2023-05-16T01:06:42;22.70;;;20.00;;
7719;SDS011;3902;49.474;8.616;2023-05-16T01:09:08;21.83;;;19.53;;
7719;SDS011;3902;49.474;8.616;2023-05-16T01:11:40;22.40;;;20.10;;
7719;SDS011;3902;49.474;8.616;2023-05-16T01:14:28;21.90;;;19.77;;
7719;SDS011;3902;49.474;8.616;2023-05-16T01:17:25;22.80;;;20.30;;
7719;SDS011;3902;49.474;8.616;2023-05-16T01:20:23;21.03;;;18.80;;
7719;SDS011;3902;49.474;8.616;2023-05-16T01:23:04;21.20;;;19.10;;
7719;SDS011;3902;49.474;8.616;2023-05-16T01:28:07;22.30;;;20.00;;
7719;SDS011;3902;49.474;8.616;2023-05-16T01:30:37;22.20;;;19.90;;
7719;SDS011;3902;49.474;8.616;2023-05-16T01:33:04;23.27;;;20.87;;
7719;SDS011;3902;49.474;8.616;2023-05-16T01:35:30;22.73;;;20.13;;
7719;SDS011;3902;49.474;8.616;2023-05-16T01:38:03;23.90;;;21.47;;
7719;SDS011;3902;49.474;8.616;2023-05-16T01:40:51;23.20;;;20.80;;
7719;SDS011;3902;49.474;8.616;2023-05-16T01:43:32;22.27;;;19.73;;
7719;SDS011;3902;49.474;8.616;2023-05-16T01:46:03;24.40;;;21.90;;
7719;SDS011;3902;49.474;8.616;2023-05-16T01:48:35;24.67;;;22.17;;
7719;SDS011;3902;49.474;8.616;2023-05-16T01:51:07;23.27;;;20.87;;
7719;SDS011;3902;49.474;8.616;2023-05-16T01:53:37;24.70;;;22.20;;
7719;SDS011;3902;49.474;8.616;2023-05-16T01:56:03;25.40;;;22.67;;
7719;SDS011;3902;49.474;8.616;2023-05-16T01:58:34;24.80;;;22.30;;
7719;SDS011;3902;49.474;8.616;2023-05-16T02:01:03;23.40;;;20.90;;
7719;SDS011;3902;49.474;8.616;2023-05-16T02:03:30;24.80;;;22.30;;
7719;SDS011;3902;49.474;8.616;2023-05-16T02:05:56;23.17;;;20.77;;
7719;SDS011;3902;49.474;8.616;2023-05-16T02:08:22;24.83;;;22.23;;
7719;SDS011;3902;49.474;8.616;2023-05-16T02:10:48;24.43;;;21.63;;
7719;SDS011;3902;49.474;8.616;2023-05-16T02:13:14;26.37;;;23.57;;
7719;SDS011;3902;49.474;8.616;2023-05-16T02:15:39;21.70;;;19.50;;
7719;SDS011;3902;49.474;8.616;2023-05-16T02:18:05;24.33;;;21.83;;
7719;SDS011;3902;49.474;8.616;2023-05-16T02:20:31;25.37;;;21.67;;
7719;SDS011;3902;49.474;8.616;2023-05-16T02:22:57;23.40;;;20.97;;
7719;SDS011;3902;49.474;8.616;2023-05-16T02:25:22;23.60;;;21.10;;
7719;SDS011;3902;49.474;8.616;2023-05-16T02:27:48;22.77;;;20.43;;
7719;SDS011;3902;49.474;8.616;2023-05-16T02:30:14;24.27;;;21.77;;
7719;SDS011;3902;49.474;8.616;2023-05-16T02:32:40;24.30;;;21.73;;
7719;SDS011;3902;49.474;8.616;2023-05-16T02:35:08;24.33;;;21.97;;
7719;SDS011;3902;49.474;8.616;2023-05-16T02:37:34;23.87;;;21.20;;
7719;SDS011;3902;49.474;8.616;2023-05-16T02:40:00;22.23;;;19.93;;
7719;SDS011;3902;49.474;8.616;2023-05-16T02:42:25;24.70;;;22.20;;
7719;SDS011;3902;49.474;8.616;2023-05-16T02:44:52;23.40;;;21.00;;
7719;SDS011;3902;49.474;8.616;2023-05-16T02:47:17;23.90;;;21.50;;
7719;SDS011;3902;49.474;8.616;2023-05-16T02:49:43;23.93;;;21.43;;
7719;SDS011;3902;49.474;8.616;2023-05-16T02:52:08;23.37;;;20.87;;
7719;SDS011;3902;49.474;8.616;2023-05-16T02:54:34;22.33;;;20.03;;
7719;SDS011;3902;49.474;8.616;2023-05-16T02:56:59;23.30;;;20.80;;
7719;SDS011;3902;49.474;8.616;2023-05-16T02:59:25;23.40;;;20.97;;
7719;SDS011;3902;49.474;8.616;2023-05-16T03:01:51;21.67;;;19.50;;
7719;SDS011;3902;49.474;8.616;2023-05-16T03:04:16;19.70;;;17.70;;
7719;SDS011;3902;49.474;8.616;2023-05-16T03:06:42;21.80;;;17.83;;
7719;SDS011;3902;49.474;8.616;2023-05-16T03:09:08;21.10;;;17.50;;
7719;SDS011;3902;49.474;8.616;2023-05-16T03:11:33;19.23;;;16.87;;
7719;SDS011;3902;49.474;8.616;2023-05-16T03:13:59;16.90;;;15.10;;
7719;SDS011;3902;49.474;8.616;2023-05-16T03:16:25;17.37;;;15.53;;
7719;SDS011;3902;49.474;8.616;2023-05-16T03:18:50;14.97;;;13.47;;
7719;SDS011;3902;49.474;8.616;2023-05-16T03:21:16;16.97;;;14.60;;
7719;SDS011;3902;49.474;8.616;2023-05-16T03:23:41;15.50;;;13.90;;
7719;SDS011;3902;49.474;8.616;2023-05-16T03:26:07;16.63;;;14.93;;
7719;SDS011;3902;49.474;8.616;2023-05-16T03:28:33;15.80;;;14.10;;
7719;SDS011;3902;49.474;8.616;2023-05-16T03:30:58;15.30;;;13.70;;
7719;SDS011;3902;49.474;8.616;2023-05-16T03:33:24;16.63;;;14.80;;
7719;SDS011;3902;49.474;8.616;2023-05-16T03:35:50;15.00;;;13.10;;
7719;SDS011;3902;49.474;8.616;2023-05-16T03:38:16;15.47;;;13.30;;
7719;SDS011;3902;49.474;8.616;2023-05-16T03:40:41;14.53;;;12.90;;
7719;SDS011;3902;49.474;8.616;2023-05-16T03:43:07;15.13;;;13.63;;
7719;SDS011;3902;49.474;8.616;2023-05-16T03:45:32;16.70;;;13.90;;
7719;SDS011;3902;49.474;8.616;2023-05-16T03:47:58;15.80;;;14.20;;
7719;SDS011;3902;49.474;8.616;2023-05-16T03:50:24;15.50;;;13.63;;
7719;SDS011;3902;49.474;8.616;2023-05-16T03:52:50;14.70;;;13.13;;
7719;SDS011;3902;49.474;8.616;2023-05-16T03:55:16;16.47;;;14.77;;
7719;SDS011;3902;49.474;8.616;2023-05-16T03:57:42;17.23;;;15.40;;
7719;SDS011;3902;49.474;8.616;2023-05-16T04:00:08;14.97;;;13.37;;
7719;SDS011;3902;49.474;8.616;2023-05-16T04:02:35;16.20;;;13.30;;
7719;SDS011;3902;49.474;8.616;2023-05-16T04:05:00;15.70;;;13.43;;
7719;SDS011;3902;49.474;8.616;2023-05-16T04:07:27;15.27;;;13.67;;
7719;SDS011;3902;49.474;8.616;2023-05-16T04:09:53;15.70;;;13.87;;
7719;SDS011;3902;49.474;8.616;2023-05-16T04:12:18;13.90;;;12.50;;
7719;SDS011;3902;49.474;8.616;2023-05-16T04:14:44;14.90;;;12.87;;
7719;SDS011;3902;49.474;8.616;2023-05-16T04:17:09;14.00;;;12.57;;
7719;SDS011;3902;49.474;8.616;2023-05-16T04:19:36;13.80;;;12.50;;
7719;SDS011;3902;49.474;8.616;2023-05-16T04:22:01;13.00;;;11.60;;
7719;SDS011;3902;49.474;8.616;2023-05-16T04:24:27;15.77;;;14.07;;
7719;SDS011;3902;49.474;8.616;2023-05-16T04:26:53;14.63;;;13.17;;
7719;SDS011;3902;49.474;8.616;2023-05-16T04:29:19;14.93;;;13.33;;
7719;SDS011;3902;49.474;8.616;2023-05-16T04:31:45;14.63;;;12.60;;
7719;SDS011;3902;49.474;8.616;2023-05-16T04:34:11;13.77;;;12.37;;
7719;SDS011;3902;49.474;8.616;2023-05-16T04:36:37;13.30;;;11.97;;
7719;SDS011;3902;49.474;8.616;2023-05-16T04:39:02;14.30;;;12.10;;
7719;SDS011;3902;49.474;8.616;2023-05-16T04:41:28;13.50;;;12.10;;
7719;SDS011;3902;49.474;8.616;2023-05-16T04:43:53;13.07;;;11.30;;
7719;SDS011;3902;49.474;8.616;2023-05-16T04:46:19;13.10;;;11.80;;
7719;SDS011;3902;49.474;8.616;2023-05-16T04:48:45;12.47;;;11.27;;
7719;SDS011;3902;49.474;8.616;2023-05-16T04:51:10;14.17;;;12.23;;
7719;SDS011;3902;49.474;8.616;2023-05-16T04:53:36;12.70;;;11.47;;
7719;SDS011;3902;49.474;8.616;2023-05-16T04:56:01;12.90;;;11.60;;
7719;SDS011;3902;49.474;8.616;2023-05-16T04:58:29;13.43;;;12.03;;
7719;SDS011;3902;49.474;8.616;2023-05-16T05:00:55;12.87;;;11.40;;
7719;SDS011;3902;49.474;8.616;2023-05-16T05:03:20;13.33;;;11.50;;
7719;SDS011;3902;49.474;8.616;2023-05-16T05:05:46;12.20;;;10.90;;
7719;SDS011;3902;49.474;8.616;2023-05-16T05:08:12;13.50;;;12.10;;
7719;SDS011;3902;49.474;8.616;2023-05-16T05:10:38;12.63;;;11.33;;
7719;SDS011;3902;49.474;8.616;2023-05-16T05:13:04;12.33;;;11.03;;
7719;SDS011;3902;49.474;8.616;2023-05-16T05:15:29;12.80;;;11.30;;
7719;SDS011;3902;49.474;8.616;2023-05-16T05:17:55;13.60;;;12.17;;
7719;SDS011;3902;49.474;8.616;2023-05-16T05:20:20;15.97;;;11.70;;
7719;SDS011;3902;49.474;8.616;2023-05-16T05:22:46;16.13;;;12.07;;
7719;SDS011;3902;49.474;8.616;2023-05-16T05:25:12;12.23;;;10.83;;
7719;SDS011;3902;49.474;8.616;2023-05-16T05:27:38;13.07;;;11.27;;
7719;SDS011;3902;49.474;8.616;2023-05-16T05:30:04;16.30;;;10.53;;
7719;SDS011;3902;49.474;8.616;2023-05-16T05:32:30;13.53;;;12.07;;
7719;SDS011;3902;49.474;8.616;2023-05-16T05:34:56;13.07;;;11.00;;
7719;SDS011;3902;49.474;8.616;2023-05-16T05:37:22;13.63;;;12.20;;
7719;SDS011;3902;49.474;8.616;2023-05-16T05:39:47;12.73;;;11.40;;
7719;SDS011;3902;49.474;8.616;2023-05-16T05:42:13;13.80;;;11.20;;
7719;SDS011;3902;49.474;8.616;2023-05-16T05:44:39;15.40;;;12.17;;
7719;SDS011;3902;49.474;8.616;2023-05-16T05:47:05;12.13;;;10.80;;
7719;SDS011;3902;49.474;8.616;2023-05-16T05:49:30;13.47;;;10.27;;
7719;SDS011;3902;49.474;8.616;2023-05-16T05:51:56;12.70;;;11.40;;
7719;SDS011;3902;49.474;8.616;2023-05-16T05:54:22;12.03;;;10.83;;
7719;SDS011;3902;49.474;8.616;2023-05-16T05:56:48;11.87;;;10.10;;
7719;SDS011;3902;49.474;8.616;2023-05-16T05:59:14;10.77;;;9.67;;
7719;SDS011;3902;49.474;8.616;2023-05-16T06:01:40;11.57;;;10.17;;
7719;SDS011;3902;49.474;8.616;2023-05-16T06:04:06;12.13;;;10.83;;
7719;SDS011;3902;49.474;8.616;2023-05-16T06:06:32;11.80;;;9.33;;
7719;SDS011;3902;49.474;8.616;2023-05-16T06:08:57;11.17;;;9.10;;
7719;SDS011;3902;49.474;8.616;2023-05-16T06:11:23;11.00;;;9.47;;
7719;SDS011;3902;49.474;8.616;2023-05-16T06:13:52;10.00;;;8.37;;
7719;SDS011;3902;49.474;8.616;2023-05-16T06:16:17;9.63;;;8.20;;
7719;SDS011;3902;49.474;8.616;2023-05-16T06:18:43;8.97;;;8.17;;
7719;SDS011;3902;49.474;8.616;2023-05-16T06:21:08;10.10;;;8.07;;
7719;SDS011;3902;49.474;8.616;2023-05-16T06:23:34;7.83;;;7.10;;
7719;SDS011;3902;49.474;8.616;2023-05-16T06:26:00;7.30;;;6.60;;
7719;SDS011;3902;49.474;8.616;2023-05-16T06:28:27;7.47;;;6.67;;
7719;SDS011;3902;49.474;8.616;2023-05-16T06:30:52;6.13;;;5.53;;
7719;SDS011;3902;49.474;8.616;2023-05-16T06:33:18;6.40;;;5.63;;
7719;SDS011;3902;49.474;8.616;2023-05-16T06:35:44;5.67;;;5.03;;
7719;SDS011;3902;49.474;8.616;2023-05-16T06:38:10;6.07;;;5.47;;
7719;SDS011;3902;49.474;8.616;2023-05-16T06:40:35;5.30;;;4.80;;
7719;SDS011;3902;49.474;8.616;2023-05-16T06:43:01;5.73;;;4.37;;
7719;SDS011;3902;49.474;8.616;2023-05-16T06:45:27;4.80;;;4.30;;
7719;SDS011;3902;49.474;8.616;2023-05-16T06:47:53;4.63;;;4.20;;
7719;SDS011;3902;49.474;8.616;2023-05-16T06:50:21;7.63;;;4.50;;
7719;SDS011;3902;49.474;8.616;2023-05-16T06:52:46;4.20;;;3.80;;
7719;SDS011;3902;49.474;8.616;2023-05-16T06:55:12;5.87;;;3.87;;
7719;SDS011;3902;49.474;8.616;2023-05-16T06:57:38;4.57;;;4.13;;
7719;SDS011;3902;49.474;8.616;2023-05-16T07:00:04;4.20;;;3.80;;
7719;SDS011;3902;49.474;8.616;2023-05-16T07:02:30;3.63;;;3.30;;
7719;SDS011;3902;49.474;8.616;2023-05-16T07:04:55;3.50;;;3.20;;
7719;SDS011;3902;49.474;8.616;2023-05-16T07:07:21;3.53;;;3.20;;
7719;SDS011;3902;49.474;8.616;2023-05-16T07:09:46;3.67;;;3.00;;
7719;SDS011;3902;49.474;8.616;2023-05-16T07:12:12;4.67;;;3.50;;
7719;SDS011;3902;49.474;8.616;2023-05-16T07:14:38;3.40;;;2.90;;
7719;SDS011;3902;49.474;8.616;2023-05-16T07:17:04;5.23;;;3.30;;
7719;SDS011;3902;49.474;8.616;2023-05-16T07:19:30;4.30;;;3.23;;
7719;SDS011;3902;49.474;8.616;2023-05-16T07:21:56;3.63;;;3.33;;
7719;SDS011;3902;49.474;8.616;2023-05-16T07:24:21;3.63;;;3.23;;
7719;SDS011;3902;49.474;8.616;2023-05-16T07:26:47;3.20;;;3.00;;
7719;SDS011;3902;49.474;8.616;2023-05-16T07:29:13;5.30;;;3.27;;
7719;SDS011;3902;49.474;8.616;2023-05-16T07:31:39;3.70;;;3.10;;
7719;SDS011;3902;49.474;8.616;2023-05-16T07:34:05;4.10;;;3.63;;
7719;SDS011;3902;49.474;8.616;2023-05-16T07:36:30;4.10;;;3.10;;
7719;SDS011;3902;49.474;8.616;2023-05-16T07:38:56;4.10;;;3.10;;
7719;SDS011;3902;49.474;8.616;2023-05-16T07:41:21;3.20;;;2.90;;
7719;SDS011;3902;49.474;8.616;2023-05-16T07:43:49;3.17;;;2.87;;
7719;SDS011;3902;49.474;8.616;2023-05-16T07:46:15;2.80;;;2.50;;
7719;SDS011;3902;49.474;8.616;2023-05-16T07:48:40;3.83;;;2.27;;
7719;SDS011;3902;49.474;8.616;2023-05-16T07:51:06;2.63;;;2.43;;
7719;SDS011;3902;49.474;8.616;2023-05-16T07:53:31;2.60;;;2.40;;
7719;SDS011;3902;49.474;8.616;2023-05-16T07:55:57;2.10;;;1.90;;
7719;SDS011;3902;49.474;8.616;2023-05-16T07:58:22;2.43;;;2.23;;
7719;SDS011;3902;49.474;8.616;2023-05-16T08:00:48;2.40;;;2.10;;
7719;SDS011;3902;49.474;8.616;2023-05-16T08:03:14;2.20;;;2.00;;
7719;SDS011;3902;49.474;8.616;2023-05-16T08:05:40;2.47;;;1.87;;
7719;SDS011;3902;49.474;8.616;2023-05-16T08:08:05;2.50;;;1.60;;
7719;SDS011;3902;49.474;8.616;2023-05-16T08:10:31;2.77;;;2.27;;
7719;SDS011;3902;49.474;8.616;2023-05-16T08:12:56;2.00;;;1.90;;
7719;SDS011;3902;49.474;8.616;2023-05-16T08:15:22;5.60;;;2.00;;
7719;SDS011;3902;49.474;8.616;2023-05-16T08:17:47;2.33;;;1.90;;
7719;SDS011;3902;49.474;8.616;2023-05-16T08:20:14;2.00;;;1.90;;
7719;SDS011;3902;49.474;8.616;2023-05-16T08:22:40;1.50;;;1.30;;
7719;SDS011;3902;49.474;8.616;2023-05-16T08:25:05;1.47;;;1.37;;
7719;SDS011;3902;49.474;8.616;2023-05-16T08:27:31;4.40;;;1.40;;
7719;SDS011;3902;49.474;8.616;2023-05-16T08:29:57;1.40;;;1.30;;
7719;SDS011;3902;49.474;8.616;2023-05-16T08:32:23;1.60;;;1.50;;
7719;SDS011;3902;49.474;8.616;2023-05-16T08:34:48;1.60;;;1.50;;
7719;SDS011;3902;49.474;8.616;2023-05-16T08:37:14;1.63;;;1.50;;
7719;SDS011;3902;49.474;8.616;2023-05-16T08:39:40;1.47;;;1.37;;
7719;SDS011;3902;49.474;8.616;2023-05-16T08:42:06;1.30;;;1.20;;
7719;SDS011;3902;49.474;8.616;2023-05-16T08:44:32;1.87;;;1.50;;
7719;SDS011;3902;49.474;8.616;2023-05-16T08:46:59;1.30;;;1.20;;
7719;SDS011;3902;49.474;8.616;2023-05-16T08:49:35;1.30;;;1.20;;
7719;SDS011;3902;49.474;8.616;2023-05-16T08:52:03;1.43;;;1.33;;
7719;SDS011;3902;49.474;8.616;2023-05-16T08:54:33;1.63;;;1.50;;
7719;SDS011;3902;49.474;8.616;2023-05-16T08:56:59;1.40;;;1.30;;
7719;SDS011;3902;49.474;8.616;2023-05-16T08:59:25;1.30;;;1.20;;
7719;SDS011;3902;49.474;8.616;2023-05-16T09:01:51;2.03;;;1.67;;
7719;SDS011;3902;49.474;8.616;2023-05-16T09:04:16;6.43;;;1.63;;
7719;SDS011;3902;49.474;8.616;2023-05-16T09:06:42;1.97;;;1.60;;
7719;SDS011;3902;49.474;8.616;2023-05-16T09:09:07;1.50;;;1.40;;
7719;SDS011;3902;49.474;8.616;2023-05-16T09:11:34;1.77;;;1.57;;
7719;SDS011;3902;49.474;8.616;2023-05-16T09:14:00;1.93;;;1.50;;
7719;SDS011;3902;49.474;8.616;2023-05-16T09:16:25;2.00;;;1.90;;
7719;SDS011;3902;49.474;8.616;2023-05-16T09:18:55;1.43;;;1.33;;
7719;SDS011;3902;49.474;8.616;2023-05-16T09:21:26;2.17;;;1.40;;
7719;SDS011;3902;49.474;8.616;2023-05-16T09:23:53;1.30;;;1.20;;
7719;SDS011;3902;49.474;8.616;2023-05-16T09:26:19;1.90;;;1.40;;
7719;SDS011;3902;49.474;8.616;2023-05-16T09:28:45;1.40;;;1.30;;
7719;SDS011;3902;49.474;8.616;2023-05-16T09:31:21;1.20;;;1.10;;
7719;SDS011;3902;49.474;8.616;2023-05-16T09:33:50;1.30;;;1.20;;
7719;SDS011;3902;49.474;8.616;2023-05-16T09:36:22;1.20;;;1.10;;
7719;SDS011;3902;49.474;8.616;2023-05-16T09:38:49;1.13;;;1.03;;
7719;SDS011;3902;49.474;8.616;2023-05-16T09:41:15;1.20;;;1.10;;
7719;SDS011;3902;49.474;8.616;2023-05-16T09:43:41;1.10;;;1.00;;
7719;SDS011;3902;49.474;8.616;2023-05-16T09:46:07;1.27;;;1.17;;
7719;SDS011;3902;49.474;8.616;2023-05-16T09:48:36;1.07;;;0.97;;
7719;SDS011;3902;49.474;8.616;2023-05-16T09:51:05;1.27;;;1.07;;
7719;SDS011;3902;49.474;8.616;2023-05-16T09:53:32;2.10;;;1.10;;
7719;SDS011;3902;49.474;8.616;2023-05-16T09:56:04;0.80;;;0.80;;
7719;SDS011;3902;49.474;8.616;2023-05-16T09:58:32;1.07;;;0.97;;
7719;SDS011;3902;49.474;8.616;2023-05-16T10:01:00;1.13;;;0.90;;
7719;SDS011;3902;49.474;8.616;2023-05-16T10:03:27;1.47;;;1.10;;
7719;SDS011;3902;49.474;8.616;2023-05-16T10:05:53;1.83;;;1.10;;
7719;SDS011;3902;49.474;8.616;2023-05-16T10:08:20;1.00;;;0.90;;
7719;SDS011;3902;49.474;8.616;2023-05-16T10:10:48;0.90;;;0.80;;
7719;SDS011;3902;49.474;8.616;2023-05-16T10:13:17;1.57;;;1.03;;
7719;SDS011;3902;49.474;8.616;2023-05-16T10:15:45;0.90;;;0.90;;
7719;SDS011;3902;49.474;8.616;2023-05-16T10:18:12;1.33;;;1.20;;
7719;SDS011;3902;49.474;8.616;2023-05-16T10:20:43;1.37;;;1.20;;
7719;SDS011;3902;49.474;8.616;2023-05-16T10:23:15;1.67;;;1.10;;
7719;SDS011;3902;49.474;8.616;2023-05-16T10:25:43;1.23;;;1.13;;
7719;SDS011;3902;49.474;8.616;2023-05-16T10:28:11;1.70;;;1.27;;
7719;SDS011;3902;49.474;8.616;2023-05-16T10:30:39;1.20;;;1.10;;
7719;SDS011;3902;49.474;8.616;2023-05-16T10:33:05;1.10;;;1.00;;
7719;SDS011;3902;49.474;8.616;2023-05-16T10:35:31;1.20;;;1.10;;
7719;SDS011;3902;49.474;8.616;2023-05-16T10:37:58;1.10;;;1.00;;
7719;SDS011;3902;49.474;8.616;2023-05-16T10:40:25;1.10;;;1.00;;
7719;SDS011;3902;49.474;8.616;2023-05-16T10:45:21;2.43;;;1.40;;
7719;SDS011;3902;49.474;8.616;2023-05-16T10:47:53;1.30;;;1.20;;
7719;SDS011;3902;49.474;8.616;2023-05-16T10:50:42;1.13;;;1.03;;
7719;SDS011;3902;49.474;8.616;2023-05-16T10:53:12;2.80;;;1.47;;
7719;SDS011;3902;49.474;8.616;2023-05-16T10:55:39;1.23;;;1.10;;
7719;SDS011;3902;49.474;8.616;2023-05-16T11:06:25;2.10;;;1.23;;
7719;SDS011;3902;49.474;8.616;2023-05-16T11:17:00;1.47;;;1.30;;
7719;SDS011;3902;49.474;8.616;2023-05-16T11:24:31;1.67;;;1.43;;
7719;SDS011;3902;49.474;8.616;2023-05-16T11:26:58;1.80;;;1.27;;
7719;SDS011;3902;49.474;8.616;2023-05-16T11:29:26;1.87;;;1.30;;
7719;SDS011;3902;49.474;8.616;2023-05-16T11:31:56;2.27;;;1.40;;
7719;SDS011;3902;49.474;8.616;2023-05-16T11:34:23;2.03;;;1.30;;
7719;SDS011;3902;49.474;8.616;2023-05-16T11:36:49;2.10;;;1.20;;
7719;SDS011;3902;49.474;8.616;2023-05-16T11:39:15;2.27;;;1.20;;
7719;SDS011;3902;49.474;8.616;2023-05-16T11:41:40;1.57;;;1.33;;
7719;SDS011;3902;49.474;8.616;2023-05-16T11:44:06;3.63;;;1.43;;
7719;SDS011;3902;49.474;8.616;2023-05-16T11:46:35;1.60;;;1.30;;
7719;SDS011;3902;49.474;8.616;2023-05-16T11:49:04;1.60;;;1.27;;
7719;SDS011;3902;49.474;8.616;2023-05-16T11:51:33;1.83;;;1.20;;
7719;SDS011;3902;49.474;8.616;2023-05-16T11:54:02;1.97;;;1.40;;
7719;SDS011;3902;49.474;8.616;2023-05-16T11:56:29;2.43;;;1.40;;
7719;SDS011;3902;49.474;8.616;2023-05-16T11:58:56;3.30;;;1.60;;
7719;SDS011;3902;49.474;8.616;2023-05-16T12:01:30;1.50;;;1.40;;
7719;SDS011;3902;49.474;8.616;2023-05-16T12:03:57;1.30;;;1.10;;
7719;SDS011;3902;49.474;8.616;2023-05-16T12:06:23;1.63;;;1.23;;
7719;SDS011;3902;49.474;8.616;2023-05-16T12:08:50;4.00;;;1.50;;
7719;SDS011;3902;49.474;8.616;2023-05-16T12:11:16;2.63;;;1.50;;
7719;SDS011;3902;49.474;8.616;2023-05-16T12:13:42;3.17;;;1.60;;
7719;SDS011;3902;49.474;8.616;2023-05-16T12:16:10;3.10;;;1.97;;
7719;SDS011;3902;49.474;8.616;2023-05-16T12:18:36;3.47;;;1.70;;
7719;SDS011;3902;49.474;8.616;2023-05-16T12:21:05;1.77;;;1.60;;
7719;SDS011;3902;49.474;8.616;2023-05-16T12:23:34;4.23;;;1.60;;
7719;SDS011;3902;49.474;8.616;2023-05-16T12:25:59;4.97;;;1.67;;
7719;SDS011;3902;49.474;8.616;2023-05-16T12:28:31;2.87;;;1.70;;
7719;SDS011;3902;49.474;8.616;2023-05-16T12:31:00;3.27;;;1.60;;
7719;SDS011;3902;49.474;8.616;2023-05-16T12:33:26;4.60;;;2.10;;
7719;SDS011;3902;49.474;8.616;2023-05-16T12:35:51;3.23;;;1.80;;
7719;SDS011;3902;49.474;8.616;2023-05-16T12:38:18;4.43;;;1.83;;
7719;SDS011;3902;49.474;8.616;2023-05-16T12:40:46;4.40;;;1.80;;
7719;SDS011;3902;49.474;8.616;2023-05-16T12:43:12;3.50;;;1.87;;
7719;SDS011;3902;49.474;8.616;2023-05-16T12:45:50;2.50;;;1.77;;
7719;SDS011;3902;49.474;8.616;2023-05-16T12:48:16;3.80;;;1.97;;
7719;SDS011;3902;49.474;8.616;2023-05-16T12:50:42;2.80;;;2.17;;
7719;SDS011;3902;49.474;8.616;2023-05-16T12:53:11;2.63;;;1.90;;
7719;SDS011;3902;49.474;8.616;2023-05-16T12:55:37;4.40;;;1.80;;
7719;SDS011;3902;49.474;8.616;2023-05-16T12:58:03;3.80;;;2.10;;
7719;SDS011;3902;49.474;8.616;2023-05-16T13:00:29;3.63;;;1.97;;
7719;SDS011;3902;49.474;8.616;2023-05-16T13:02:56;3.90;;;2.00;;
7719;SDS011;3902;49.474;8.616;2023-05-16T13:05:21;3.83;;;2.30;;
7719;SDS011;3902;49.474;8.616;2023-05-16T13:07:47;2.33;;;1.73;;
7719;SDS011;3902;49.474;8.616;2023-05-16T13:10:15;4.60;;;2.40;;
7719;SDS011;3902;49.474;8.616;2023-05-16T13:12:42;8.43;;;2.47;;
7719;SDS011;3902;49.474;8.616;2023-05-16T13:15:08;10.60;;;2.27;;
7719;SDS011;3902;49.474;8.616;2023-05-16T13:17:35;4.60;;;2.13;;
7719;SDS011;3902;49.474;8.616;2023-05-16T13:20:02;3.73;;;2.07;;
7719;SDS011;3902;49.474;8.616;2023-05-16T13:22:34;5.33;;;2.17;;
7719;SDS011;3902;49.474;8.616;2023-05-16T13:25:00;4.10;;;1.80;;
7719;SDS011;3902;49.474;8.616;2023-05-16T13:27:26;6.47;;;2.40;;
7719;SDS011;3902;49.474;8.616;2023-05-16T13:29:52;3.30;;;1.87;;
7719;SDS011;3902;49.474;8.616;2023-05-16T13:32:17;3.97;;;2.17;;
7719;SDS011;3902;49.474;8.616;2023-05-16T13:34:43;2.50;;;1.80;;
7719;SDS011;3902;49.474;8.616;2023-05-16T13:37:08;4.27;;;2.00;;
7719;SDS011;3902;49.474;8.616;2023-05-16T13:39:34;6.80;;;2.43;;
7719;SDS011;3902;49.474;8.616;2023-05-16T13:42:00;5.20;;;2.40;;
7719;SDS011;3902;49.474;8.616;2023-05-16T13:44:27;4.87;;;2.00;;
7719;SDS011;3902;49.474;8.616;2023-05-16T13:46:52;5.03;;;2.20;;
7719;SDS011;3902;49.474;8.616;2023-05-16T13:49:18;7.93;;;2.27;;
7719;SDS011;3902;49.474;8.616;2023-05-16T13:51:43;5.17;;;2.20;;
7719;SDS011;3902;49.474;8.616;2023-05-16T13:54:09;3.83;;;1.80;;
7719;SDS011;3902;49.474;8.616;2023-05-16T13:56:35;3.87;;;2.10;;
7719;SDS011;3902;49.474;8.616;2023-05-16T13:59:00;4.93;;;2.30;;
7719;SDS011;3902;49.474;8.616;2023-05-16T14:01:26;3.50;;;2.00;;
7719;SDS011;3902;49.474;8.616;2023-05-16T14:03:52;4.27;;;2.00;;
7719;SDS011;3902;49.474;8.616;2023-05-16T14:06:17;3.50;;;1.70;;
7719;SDS011;3902;49.474;8.616;2023-05-16T14:08:43;2.77;;;1.60;;
7719;SDS011;3902;49.474;8.616;2023-05-16T14:11:08;3.03;;;1.40;;
7719;SDS011;3902;49.474;8.616;2023-05-16T14:13:33;3.57;;;2.10;;
7719;SDS011;3902;49.474;8.616;2023-05-16T14:15:59;3.07;;;1.77;;
7719;SDS011;3902;49.474;8.616;2023-05-16T14:18:26;3.60;;;2.00;;
7719;SDS011;3902;49.474;8.616;2023-05-16T14:20:51;2.73;;;1.83;;
7719;SDS011;3902;49.474;8.616;2023-05-16T14:23:20;9.70;;;1.90;;
7719;SDS011;3902;49.474;8.616;2023-05-16T14:25:45;4.40;;;1.60;;
7719;SDS011;3902;49.474;8.616;2023-05-16T14:28:11;2.43;;;1.53;;
7719;SDS011;3902;49.474;8.616;2023-05-16T14:30:36;3.50;;;1.90;;
7719;SDS011;3902;49.474;8.616;2023-05-16T14:33:02;2.80;;;1.60;;
7719;SDS011;3902;49.474;8.616;2023-05-16T14:35:27;1.67;;;1.37;;
7719;SDS011;3902;49.474;8.616;2023-05-16T14:37:53;4.13;;;1.60;;
7719;SDS011;3902;49.474;8.616;2023-05-16T14:40:18;3.93;;;2.20;;
7719;SDS011;3902;49.474;8.616;2023-05-16T14:42:45;4.90;;;2.20;;
7719;SDS011;3902;49.474;8.616;2023-05-16T14:45:11;5.20;;;2.23;;
7719;SDS011;3902;49.474;8.616;2023-05-16T14:47:36;5.97;;;2.10;;
7719;SDS011;3902;49.474;8.616;2023-05-16T14:50:02;3.10;;;1.83;;
7719;SDS011;3902;49.474;8.616;2023-05-16T14:52:28;6.20;;;2.07;;
7719;SDS011;3902;49.474;8.616;2023-05-16T14:54:53;3.30;;;1.80;;
7719;SDS011;3902;49.474;8.616;2023-05-16T14:57:19;5.30;;;1.70;;
7719;SDS011;3902;49.474;8.616;2023-05-16T14:59:44;2.17;;;1.50;;
7719;SDS011;3902;49.474;8.616;2023-05-16T15:02:11;3.33;;;1.70;;
7719;SDS011;3902;49.474;8.616;2023-05-16T15:04:36;2.87;;;1.40;;
7719;SDS011;3902;49.474;8.616;2023-05-16T15:07:02;3.80;;;2.00;;
7719;SDS011;3902;49.474;8.616;2023-05-16T15:09:27;4.40;;;2.37;;
7719;SDS011;3902;49.474;8.616;2023-05-16T15:11:53;3.80;;;1.60;;
7719;SDS011;3902;49.474;8.616;2023-05-16T15:14:18;2.70;;;1.50;;
7719;SDS011;3902;49.474;8.616;2023-05-16T15:16:44;2.20;;;1.50;;
7719;SDS011;3902;49.474;8.616;2023-05-16T15:19:11;2.77;;;1.53;;
7719;SDS011;3902;49.474;8.616;2023-05-16T15:21:36;3.00;;;1.67;;
7719;SDS011;3902;49.474;8.616;2023-05-16T15:24:02;4.47;;;1.50;;
7719;SDS011;3902;49.474;8.616;2023-05-16T15:26:27;2.33;;;1.43;;
7719;SDS011;3902;49.474;8.616;2023-05-16T15:28:53;2.47;;;1.80;;